Smarr, Georgia
Current Conditions -  °F | °C
As of 7:35 PM on Sunday 21 Dec 2014 (Local Time) from KOPN Reporting Station
Overcast Overcast  
Wind Chill: 52°   Ceiling: 1200
Heat Index: 52°   Visibility: 10mi
Dew Point: 48°   Wind: 8mph
Humidity: 88%   Direction: 110°ESE
Pressure: 30.11"   Gusts: NA
Location:  32.99°N, 83.88°W
Report Text: KOPN 220035Z AUTO 11007KT 080V140 10SM BKN012 BKN017 OVC026 11/09 A3011 RMK AO2
Loading
Personal Weather Stations






























Interactive Weather Map New forecast layout! Learn more

10-Day Weather Forecast

Advertisements
Track Severe Weather on mobile